createdAt,value
2018-12-17T00:00:39.270Z,2.90
2018-12-17T00:03:05.499Z,2.90
2018-12-17T00:05:31.831Z,2.90
2018-12-17T00:07:58.160Z,2.80
2018-12-17T00:10:24.470Z,2.80
2018-12-17T00:12:50.795Z,2.70
2018-12-17T00:15:17.214Z,2.80
2018-12-17T00:17:43.671Z,2.80
2018-12-17T00:20:09.940Z,2.70
2018-12-17T00:22:36.278Z,2.70
2018-12-17T00:25:03.029Z,2.60
2018-12-17T00:27:29.241Z,2.60
2018-12-17T00:29:55.537Z,2.60
2018-12-17T00:32:21.858Z,2.60
2018-12-17T00:34:48.138Z,2.70
2018-12-17T00:37:14.470Z,2.70
2018-12-17T00:39:40.864Z,2.70
2018-12-17T00:42:07.048Z,2.60
2018-12-17T00:44:33.420Z,2.60
2018-12-17T00:47:01.215Z,2.60
2018-12-17T00:49:28.551Z,2.60
2018-12-17T00:51:55.435Z,2.70
2018-12-17T00:54:22.700Z,2.70
2018-12-17T00:56:48.910Z,2.70
2018-12-17T00:59:15.253Z,2.70
2018-12-17T01:01:41.627Z,2.60
2018-12-17T01:04:07.642Z,2.60
2018-12-17T01:06:33.932Z,2.60
2018-12-17T01:09:00.150Z,2.60
2018-12-17T01:11:26.380Z,2.60
2018-12-17T01:13:52.696Z,2.60
2018-12-17T01:16:18.803Z,2.60
2018-12-17T01:18:45.119Z,2.60
2018-12-17T01:21:11.312Z,2.60
2018-12-17T01:23:37.608Z,2.60
2018-12-17T01:26:04.673Z,2.60
2018-12-17T01:28:30.937Z,2.60
2018-12-17T01:30:57.153Z,2.60
2018-12-17T01:33:23.542Z,2.60
2018-12-17T01:35:49.689Z,2.60
2018-12-17T01:38:16.358Z,2.60
2018-12-17T01:40:42.470Z,2.60
2018-12-17T01:45:42.913Z,2.60
2018-12-17T01:48:08.913Z,2.60
2018-12-17T01:50:35.096Z,2.60
2018-12-17T01:53:02.227Z,2.60
2018-12-17T01:55:28.231Z,2.60
2018-12-17T01:57:54.238Z,2.60
2018-12-17T02:00:20.480Z,2.60
2018-12-17T02:02:46.691Z,2.70
2018-12-17T02:05:15.210Z,2.70
2018-12-17T02:07:41.330Z,2.70
2018-12-17T02:10:07.621Z,2.80
2018-12-17T02:12:33.997Z,2.80
2018-12-17T02:15:00.166Z,2.80
2018-12-17T02:17:26.387Z,2.80
2018-12-17T02:19:52.796Z,2.80
2018-12-17T02:22:19.054Z,2.70
2018-12-17T02:24:45.361Z,2.70
2018-12-17T02:27:11.599Z,2.70
2018-12-17T02:29:37.770Z,2.80
2018-12-17T02:32:04.915Z,2.70
2018-12-17T02:34:30.963Z,2.70
2018-12-17T02:36:57.180Z,2.70
2018-12-17T02:39:23.370Z,2.70
2018-12-17T02:41:49.574Z,2.70
2018-12-17T02:44:16.050Z,2.80
2018-12-17T02:46:42.244Z,2.70
2018-12-17T02:49:08.409Z,2.60
2018-12-17T02:51:36.527Z,2.80
2018-12-17T02:54:02.773Z,2.70
2018-12-17T02:56:28.997Z,2.70
2018-12-17T02:58:55.179Z,2.80
2018-12-17T03:01:21.373Z,2.80
2018-12-17T03:03:47.622Z,2.80
2018-12-17T03:06:13.838Z,2.70
2018-12-17T03:08:40.057Z,2.80
2018-12-17T03:11:06.250Z,2.80
2018-12-17T03:13:32.375Z,2.80
2018-12-17T03:15:58.772Z,2.80
2018-12-17T03:18:25.128Z,2.90
2018-12-17T03:20:51.433Z,2.90
2018-12-17T03:23:17.832Z,2.90
2018-12-17T03:25:46.095Z,2.90
2018-12-17T03:28:12.342Z,2.90
2018-12-17T03:30:38.535Z,2.90
2018-12-17T03:33:04.651Z,2.90
2018-12-17T03:35:31.935Z,2.90
2018-12-17T03:37:57.977Z,2.90
2018-12-17T03:40:24.282Z,2.80
2018-12-17T03:42:50.535Z,2.80
2018-12-17T03:45:16.687Z,2.80
2018-12-17T03:47:43.838Z,2.80
2018-12-17T03:50:10.300Z,2.80
2018-12-17T03:52:36.593Z,2.90
2018-12-17T03:55:03.489Z,2.80
2018-12-17T03:57:29.768Z,2.80
2018-12-17T03:59:57.083Z,2.80
2018-12-17T04:02:23.262Z,2.80
2018-12-17T04:04:49.693Z,2.80
2018-12-17T04:07:15.942Z,2.80
2018-12-17T04:09:42.148Z,2.80
2018-12-17T04:12:09.845Z,2.80
2018-12-17T04:14:36.044Z,2.80
2018-12-17T04:17:02.299Z,2.80
2018-12-17T04:19:30.500Z,2.80
2018-12-17T04:21:56.719Z,2.80
2018-12-17T04:24:22.950Z,2.80
2018-12-17T04:26:49.263Z,2.90
2018-12-17T04:29:15.676Z,2.90
2018-12-17T04:31:41.916Z,2.90
2018-12-17T04:34:08.137Z,2.90
2018-12-17T04:36:34.360Z,2.90
2018-12-17T04:39:00.666Z,3.00
2018-12-17T04:41:26.782Z,2.90
2018-12-17T04:43:54.124Z,2.90
2018-12-17T04:46:20.361Z,2.90
2018-12-17T04:48:46.481Z,3.00
2018-12-17T04:51:13.474Z,3.00
2018-12-17T04:53:41.981Z,3.10
2018-12-17T04:56:18.008Z,3.00
2018-12-17T04:58:47.908Z,3.10
2018-12-17T05:01:14.158Z,3.10
2018-12-17T05:03:40.652Z,3.20
2018-12-17T05:06:07.736Z,3.20
2018-12-17T05:08:35.084Z,3.20
2018-12-17T05:11:02.875Z,3.20
2018-12-17T05:13:29.364Z,3.20
2018-12-17T05:15:55.775Z,3.20
2018-12-17T05:18:21.755Z,3.20
2018-12-17T05:20:48.108Z,3.30
2018-12-17T05:23:14.267Z,3.30
2018-12-17T05:25:40.411Z,3.20
2018-12-17T05:28:08.822Z,3.30
2018-12-17T05:33:33.573Z,3.30
2018-12-17T05:36:00.083Z,3.30
2018-12-17T05:38:26.175Z,3.20
2018-12-17T05:40:56.235Z,3.20
2018-12-17T05:43:22.446Z,3.20
2018-12-17T05:45:48.588Z,3.20
2018-12-17T05:48:15.769Z,3.30
2018-12-17T05:50:42.155Z,3.30
2018-12-17T05:53:08.468Z,3.20
2018-12-17T05:55:34.763Z,3.20
2018-12-17T05:58:01.492Z,3.20
2018-12-17T06:00:28.310Z,3.30
2018-12-17T06:02:54.534Z,3.30
2018-12-17T06:05:20.940Z,3.30
2018-12-17T06:07:47.118Z,3.30
2018-12-17T06:10:13.296Z,3.30
2018-12-17T06:12:39.750Z,3.30
2018-12-17T06:15:07.201Z,3.20
2018-12-17T06:17:34.277Z,3.10
2018-12-17T06:20:00.881Z,3.10
2018-12-17T06:22:27.325Z,3.10
2018-12-17T06:24:53.427Z,3.10
2018-12-17T06:27:19.711Z,3.00
2018-12-17T06:29:46.342Z,2.90
2018-12-17T06:32:12.678Z,3.00
2018-12-17T06:34:38.863Z,3.00
2018-12-17T06:37:05.083Z,3.00
2018-12-17T06:39:31.402Z,3.00
2018-12-17T06:41:58.602Z,3.00
2018-12-17T06:44:24.797Z,3.10
2018-12-17T06:46:51.151Z,3.00
2018-12-17T06:49:17.496Z,3.00
2018-12-17T06:51:52.790Z,3.00
2018-12-17T06:54:19.871Z,3.00
2018-12-17T06:56:46.103Z,3.00
2018-12-17T06:59:12.535Z,2.90
2018-12-17T07:01:43.281Z,2.90
2018-12-17T07:04:10.628Z,2.90
2018-12-17T07:06:36.915Z,2.90
2018-12-17T07:09:04.648Z,2.80
2018-12-17T07:11:31.020Z,2.90
2018-12-17T07:13:57.353Z,2.90
2018-12-17T07:16:24.579Z,2.90
2018-12-17T07:18:50.876Z,2.90
2018-12-17T07:21:17.196Z,2.90
2018-12-17T07:23:45.319Z,3.00
2018-12-17T07:26:11.467Z,2.90
2018-12-17T07:28:37.676Z,3.00
2018-12-17T07:31:11.709Z,3.00
2018-12-17T07:33:41.070Z,3.00
2018-12-17T07:36:07.354Z,3.00
2018-12-17T07:38:33.856Z,3.00
2018-12-17T07:41:00.124Z,3.10
2018-12-17T07:43:27.477Z,3.10
2018-12-17T07:45:53.887Z,3.10
2018-12-17T07:48:20.148Z,3.10
2018-12-17T07:50:46.409Z,3.10
2018-12-17T07:53:12.710Z,3.10
2018-12-17T07:55:39.084Z,3.10
2018-12-17T07:58:06.208Z,3.10
2018-12-17T08:00:32.581Z,3.10
2018-12-17T08:02:59.155Z,3.10
2018-12-17T08:05:25.353Z,3.00
2018-12-17T08:07:54.171Z,3.10
2018-12-17T08:10:20.312Z,3.10
2018-12-17T08:12:46.727Z,3.10
2018-12-17T08:15:12.970Z,3.10
2018-12-17T08:17:41.243Z,3.10
2018-12-17T08:20:07.567Z,3.00
2018-12-17T08:22:34.013Z,3.10
2018-12-17T08:25:02.249Z,3.10
2018-12-17T08:27:28.636Z,3.10
2018-12-17T08:29:54.842Z,3.10
2018-12-17T08:32:21.235Z,3.20
2018-12-17T08:34:50.315Z,3.20
2018-12-17T08:37:19.647Z,3.20
2018-12-17T08:39:46.335Z,3.20
2018-12-17T08:42:13.458Z,3.20
2018-12-17T08:44:41.649Z,3.20
2018-12-17T08:47:18.400Z,3.20
2018-12-17T08:49:44.714Z,3.20
2018-12-17T08:52:13.038Z,3.20
2018-12-17T08:54:43.702Z,3.20
2018-12-17T08:57:11.200Z,3.20
2018-12-17T08:59:38.254Z,3.20
2018-12-17T09:02:04.620Z,3.20
2018-12-17T09:04:30.943Z,3.30
2018-12-17T09:06:57.278Z,3.30
2018-12-17T09:09:23.619Z,3.30
2018-12-17T09:11:49.866Z,3.30
2018-12-17T09:14:19.862Z,3.40
2018-12-17T09:16:46.146Z,3.40
2018-12-17T09:19:12.481Z,3.40
2018-12-17T09:21:38.865Z,3.40
2018-12-17T09:24:05.164Z,3.40
2018-12-17T09:26:35.237Z,3.50
2018-12-17T09:29:02.580Z,3.50
2018-12-17T09:31:28.897Z,3.50
2018-12-17T09:33:56.594Z,3.60
2018-12-17T09:36:23.964Z,3.60
2018-12-17T09:38:52.342Z,3.60
2018-12-17T09:41:18.652Z,3.60
2018-12-17T09:43:48.260Z,3.70
2018-12-17T09:46:18.856Z,3.70
2018-12-17T09:48:45.015Z,3.80
2018-12-17T09:51:11.409Z,3.80
2018-12-17T09:53:37.617Z,3.80
2018-12-17T09:56:04.035Z,3.80
2018-12-17T09:58:30.453Z,4.50
2018-12-17T10:00:56.786Z,4.70
2018-12-17T10:03:22.995Z,5.20
2018-12-17T10:05:49.264Z,5.30
2018-12-17T10:08:16.292Z,5.50
2018-12-17T10:10:50.771Z,5.20
2018-12-17T10:13:20.197Z,4.80
2018-12-17T10:15:47.338Z,4.60
2018-12-17T10:18:14.587Z,4.50
2018-12-17T10:20:41.099Z,4.40
2018-12-17T10:23:07.709Z,4.30
2018-12-17T10:25:33.936Z,4.20
2018-12-17T10:28:00.239Z,4.10
2018-12-17T10:30:32.431Z,4.10
2018-12-17T10:32:55.069Z,4.10
2018-12-17T10:35:21.211Z,4.10
2018-12-17T10:37:48.517Z,4.10
2018-12-17T10:40:14.834Z,4.20
2018-12-17T10:42:41.208Z,4.20
2018-12-17T10:45:07.392Z,4.20
2018-12-17T10:47:33.764Z,4.20
2018-12-17T10:50:01.228Z,4.20
2018-12-17T10:52:27.495Z,4.20
2018-12-17T10:54:54.720Z,4.20
2018-12-17T10:57:20.945Z,4.20
2018-12-17T10:59:48.308Z,4.20
2018-12-17T11:02:18.773Z,4.20
2018-12-17T11:04:51.093Z,4.20
2018-12-17T11:07:21.411Z,4.20
2018-12-17T11:09:47.682Z,4.10
2018-12-17T11:12:17.277Z,4.20
2018-12-17T11:14:43.529Z,4.20
2018-12-17T11:17:09.933Z,4.20
2018-12-17T11:19:38.317Z,4.20
2018-12-17T11:22:04.555Z,4.20
2018-12-17T11:24:30.646Z,4.20
2018-12-17T11:26:58.831Z,4.20
2018-12-17T11:29:26.217Z,4.20
2018-12-17T11:31:59.391Z,4.20
2018-12-17T11:34:30.519Z,4.20
2018-12-17T11:36:57.827Z,4.20
2018-12-17T11:39:24.493Z,4.20
2018-12-17T11:41:52.910Z,4.10
2018-12-17T11:44:19.104Z,4.20
2018-12-17T11:46:45.275Z,4.20
2018-12-17T11:49:14.142Z,4.20
2018-12-17T11:51:40.365Z,4.20
2018-12-17T11:54:06.652Z,4.30
2018-12-17T11:56:42.808Z,4.20
2018-12-17T11:59:08.971Z,4.20
2018-12-17T12:01:35.512Z,4.20
2018-12-17T12:04:03.750Z,4.20
2018-12-17T12:06:30.138Z,4.20
2018-12-17T12:08:56.350Z,4.20
2018-12-17T12:11:22.584Z,4.20
2018-12-17T12:13:48.837Z,4.20
2018-12-17T12:16:16.258Z,4.20
2018-12-17T12:18:42.682Z,4.30
2018-12-17T12:21:09.951Z,4.30
2018-12-17T12:23:36.107Z,4.30
2018-12-17T12:26:03.379Z,4.30
2018-12-17T12:28:29.542Z,4.30
2018-12-17T12:31:00.448Z,4.30
2018-12-17T12:33:25.367Z,4.30
2018-12-17T12:35:52.724Z,4.40
2018-12-17T12:38:19.762Z,4.40
2018-12-17T12:40:55.876Z,4.40
2018-12-17T12:43:25.334Z,4.50
2018-12-17T12:45:52.492Z,4.40
2018-12-17T12:48:20.641Z,4.40
2018-12-17T12:50:46.792Z,4.50
2018-12-17T12:53:13.329Z,4.50
2018-12-17T12:55:39.541Z,4.50
2018-12-17T12:58:05.725Z,4.40
2018-12-17T13:00:36.147Z,4.40
2018-12-17T13:03:02.402Z,4.50
2018-12-17T13:05:28.696Z,4.50
2018-12-17T13:07:54.930Z,4.50
2018-12-17T13:10:20.986Z,4.60
2018-12-17T13:12:47.216Z,4.50
2018-12-17T13:15:14.578Z,4.50
2018-12-17T13:17:40.633Z,4.60
2018-12-17T13:20:07.031Z,4.60
2018-12-17T13:22:34.149Z,4.60
2018-12-17T13:25:06.740Z,4.70
2018-12-17T13:27:36.470Z,4.70
2018-12-17T13:30:04.533Z,4.80
2018-12-17T13:32:30.575Z,4.70
2018-12-17T13:35:00.337Z,4.70
2018-12-17T13:37:27.576Z,4.70
2018-12-17T13:39:53.780Z,4.70
2018-12-17T13:42:19.873Z,4.70
2018-12-17T13:44:46.375Z,4.70
2018-12-17T13:47:12.470Z,4.70
2018-12-17T13:49:38.732Z,4.70
2018-12-17T13:52:11.104Z,4.70
2018-12-17T13:54:37.172Z,4.80
2018-12-17T13:57:03.659Z,4.70
2018-12-17T13:59:30.535Z,4.70
2018-12-17T14:01:56.697Z,4.70
2018-12-17T14:04:24.063Z,4.70
2018-12-17T14:06:51.283Z,4.70
2018-12-17T14:09:19.831Z,4.70
2018-12-17T14:11:46.561Z,4.70
2018-12-17T14:14:13.898Z,4.70
2018-12-17T14:16:46.520Z,4.70
2018-12-17T14:19:16.482Z,4.80
2018-12-17T14:21:48.738Z,4.80
2018-12-17T14:24:14.786Z,4.80
2018-12-17T14:26:41.013Z,4.80
2018-12-17T14:29:07.244Z,4.80
2018-12-17T14:31:33.506Z,4.80
2018-12-17T14:33:59.866Z,4.80
2018-12-17T14:36:27.997Z,4.80
2018-12-17T14:39:07.297Z,4.80
2018-12-17T14:41:41.535Z,4.90
2018-12-17T14:44:14.103Z,4.90
2018-12-17T14:46:50.881Z,4.90
2018-12-17T14:49:17.321Z,4.90
2018-12-17T14:51:49.430Z,4.90
2018-12-17T14:54:21.359Z,4.90
2018-12-17T14:56:56.539Z,4.90
2018-12-17T14:59:28.277Z,4.90
2018-12-17T15:02:00.139Z,5.00
2018-12-17T15:07:03.469Z,5.00
2018-12-17T15:09:29.842Z,5.00
2018-12-17T15:11:56.130Z,5.00
2018-12-17T15:14:23.310Z,5.00
2018-12-17T15:16:50.606Z,5.00
2018-12-17T15:19:17.706Z,5.00
2018-12-17T15:21:44.363Z,5.00
2018-12-17T15:24:11.269Z,5.00
2018-12-17T15:26:37.487Z,5.10
2018-12-17T15:29:03.869Z,5.00
2018-12-17T15:31:43.100Z,5.10
2018-12-17T15:34:07.114Z,5.10
2018-12-17T15:36:34.422Z,5.10
2018-12-17T15:39:06.265Z,5.10
2018-12-17T15:41:32.446Z,5.10
2018-12-17T15:43:58.741Z,5.10
2018-12-17T15:46:24.915Z,5.10
2018-12-17T15:48:52.286Z,5.10
2018-12-17T15:51:18.704Z,5.10
2018-12-17T15:53:46.283Z,5.20
2018-12-17T15:56:12.590Z,5.20
2018-12-17T15:58:39.917Z,5.20
2018-12-17T16:01:06.925Z,5.20
2018-12-17T16:03:33.076Z,5.20
2018-12-17T16:05:59.469Z,5.20
2018-12-17T16:08:25.736Z,5.20
2018-12-17T16:10:54.120Z,5.20
2018-12-17T16:13:25.119Z,5.30
2018-12-17T16:15:51.236Z,5.20
2018-12-17T16:18:18.548Z,5.20
2018-12-17T16:20:46.007Z,5.20
2018-12-17T16:23:12.507Z,5.20
2018-12-17T16:25:42.503Z,5.20
2018-12-17T16:28:09.841Z,5.20
2018-12-17T16:30:41.771Z,5.30
2018-12-17T16:33:08.062Z,5.30
2018-12-17T16:35:34.378Z,5.30
2018-12-17T16:38:08.191Z,5.30
2018-12-17T16:40:35.719Z,5.20
2018-12-17T16:43:05.507Z,5.30
2018-12-17T16:45:33.950Z,5.30
2018-12-17T16:48:01.201Z,5.30
2018-12-17T16:50:27.376Z,5.30
2018-12-17T16:52:59.084Z,5.20
2018-12-17T16:55:25.645Z,5.30
2018-12-17T16:57:51.949Z,5.30
2018-12-17T17:00:19.312Z,5.30
2018-12-17T17:02:46.555Z,5.30
2018-12-17T17:05:12.963Z,5.30
2018-12-17T17:07:42.989Z,5.40
2018-12-17T17:10:12.383Z,5.30
2018-12-17T17:12:44.576Z,5.40
2018-12-17T17:15:15.014Z,5.30
2018-12-17T17:17:41.231Z,5.30
2018-12-17T17:20:09.554Z,5.40
2018-12-17T17:22:40.290Z,5.30
2018-12-17T17:25:20.388Z,5.30
2018-12-17T17:27:50.592Z,5.20
2018-12-17T17:30:16.906Z,5.20
2018-12-17T17:32:43.165Z,5.30
2018-12-17T17:35:09.512Z,5.20
2018-12-17T17:37:36.872Z,5.20
2018-12-17T17:40:07.377Z,5.20
2018-12-17T17:42:33.657Z,5.20
2018-12-17T17:45:00.299Z,5.20
2018-12-17T17:47:26.615Z,5.20
2018-12-17T17:49:52.810Z,5.20
2018-12-17T17:52:19.127Z,5.20
2018-12-17T17:54:49.929Z,5.20
2018-12-17T17:57:16.240Z,5.20
2018-12-17T17:59:45.244Z,5.30
2018-12-17T18:02:18.602Z,5.10
2018-12-17T18:04:40.251Z,5.20
2018-12-17T18:07:06.367Z,5.20
2018-12-17T18:09:32.449Z,5.20
2018-12-17T18:12:00.517Z,5.20
2018-12-17T18:14:27.119Z,5.20
2018-12-17T18:16:53.521Z,5.20
2018-12-17T18:19:28.125Z,5.20
2018-12-17T18:21:56.519Z,5.30
2018-12-17T18:24:23.080Z,5.20
2018-12-17T18:26:58.061Z,5.30
2018-12-17T18:29:24.427Z,5.30
2018-12-17T18:32:00.587Z,5.20
2018-12-17T18:34:28.211Z,5.20
2018-12-17T18:37:02.097Z,5.20
2018-12-17T18:39:34.539Z,5.20
2018-12-17T18:42:01.427Z,5.20
2018-12-17T18:44:28.816Z,5.20
2018-12-17T18:46:59.183Z,5.20
2018-12-17T18:49:25.533Z,5.20
2018-12-17T18:51:51.717Z,5.20
2018-12-17T18:54:18.077Z,5.20
2018-12-17T18:56:44.334Z,5.20
2018-12-17T18:59:10.481Z,5.20
2018-12-17T19:01:37.896Z,5.20
2018-12-17T19:04:14.261Z,5.20
2018-12-17T19:06:45.506Z,5.20
2018-12-17T19:09:11.694Z,5.20
2018-12-17T19:11:38.080Z,5.20
2018-12-17T19:14:04.395Z,5.20
2018-12-17T19:16:31.728Z,5.20
2018-12-17T19:18:59.070Z,5.20
2018-12-17T19:21:28.559Z,5.20
2018-12-17T19:23:54.895Z,5.20
2018-12-17T19:26:21.419Z,5.20
2018-12-17T19:28:47.897Z,5.30
2018-12-17T19:31:14.755Z,5.20
2018-12-17T19:33:42.056Z,5.30
2018-12-17T19:36:09.843Z,5.30
2018-12-17T19:38:37.046Z,5.30
2018-12-17T19:41:04.352Z,5.30
2018-12-17T19:43:30.788Z,5.30
2018-12-17T19:45:59.818Z,5.30
2018-12-17T19:48:27.182Z,5.30
2018-12-17T19:50:55.574Z,5.20
2018-12-17T19:53:21.843Z,5.20
2018-12-17T19:55:49.213Z,5.20
2018-12-17T19:58:15.540Z,5.20
2018-12-17T20:00:43.045Z,5.20
2018-12-17T20:03:10.315Z,5.20
2018-12-17T20:05:38.120Z,5.20
2018-12-17T20:08:04.463Z,5.20
2018-12-17T20:10:31.465Z,5.20
2018-12-17T20:12:58.880Z,5.20
2018-12-17T20:15:25.831Z,5.20
2018-12-17T20:17:52.236Z,5.20
2018-12-17T20:20:26.556Z,5.20
2018-12-17T20:22:52.990Z,5.20
2018-12-17T20:25:19.314Z,5.20
2018-12-17T20:27:45.690Z,5.20
2018-12-17T20:30:12.696Z,5.20
2018-12-17T20:35:41.563Z,5.20
2018-12-17T20:38:07.859Z,5.20
2018-12-17T20:40:35.534Z,5.10
2018-12-17T20:43:01.923Z,5.10
2018-12-17T20:45:28.039Z,5.10
2018-12-17T20:47:54.391Z,5.10
2018-12-17T20:50:24.510Z,5.20
2018-12-17T20:52:55.183Z,5.20
2018-12-17T20:55:21.829Z,5.20
2018-12-17T20:57:48.911Z,5.20
2018-12-17T21:00:16.820Z,5.20
2018-12-17T21:02:47.006Z,5.10
2018-12-17T21:05:13.670Z,5.10
2018-12-17T21:07:40.789Z,5.10
2018-12-17T21:10:09.455Z,5.10
2018-12-17T21:12:38.897Z,5.10
2018-12-17T21:15:07.880Z,5.10
2018-12-17T21:17:35.538Z,5.10
2018-12-17T21:20:41.066Z,5.10
2018-12-17T21:23:43.748Z,5.10
2018-12-17T21:26:43.363Z,5.10
2018-12-17T21:29:41.171Z,5.00
2018-12-17T21:32:39.457Z,5.00
2018-12-17T21:35:37.678Z,4.90
2018-12-17T21:38:36.794Z,4.90
2018-12-17T21:41:34.381Z,5.00
2018-12-17T21:44:34.946Z,5.00
2018-12-17T21:47:36.645Z,4.90
2018-12-17T21:50:07.522Z,4.90
2018-12-17T21:52:33.965Z,4.90
2018-12-17T21:55:00.250Z,5.00
2018-12-17T21:57:35.130Z,5.00
2018-12-17T22:00:08.397Z,5.00
2018-12-17T22:02:43.779Z,5.00
2018-12-17T22:05:10.011Z,5.00
2018-12-17T22:07:38.494Z,4.90
2018-12-17T22:10:05.155Z,4.90
2018-12-17T22:12:31.377Z,4.90
2018-12-17T22:14:57.607Z,4.90
2018-12-17T22:17:28.501Z,4.90
2018-12-17T22:19:54.823Z,4.80
2018-12-17T22:22:21.170Z,4.80
2018-12-17T22:24:47.327Z,4.80
2018-12-17T22:27:13.538Z,4.80
2018-12-17T22:29:39.778Z,4.70
2018-12-17T22:32:06.012Z,4.70
2018-12-17T22:34:32.056Z,4.70
2018-12-17T22:36:58.361Z,4.70
2018-12-17T22:39:28.824Z,4.70
2018-12-17T22:41:54.952Z,4.70
2018-12-17T22:44:21.141Z,4.70
2018-12-17T22:46:47.380Z,4.70
2018-12-17T22:49:18.297Z,4.70
2018-12-17T22:51:44.584Z,4.80
2018-12-17T22:54:15.654Z,4.70
2018-12-17T22:56:41.750Z,4.70
2018-12-17T22:59:07.985Z,4.70
2018-12-17T23:01:35.397Z,4.70
2018-12-17T23:04:01.612Z,4.70
2018-12-17T23:06:27.745Z,4.70
2018-12-17T23:09:03.504Z,4.70
2018-12-17T23:11:48.289Z,4.70
2018-12-17T23:14:26.557Z,4.80
2018-12-17T23:17:06.095Z,4.80
2018-12-17T23:19:40.361Z,4.70
2018-12-17T23:22:07.841Z,4.80
2018-12-17T23:24:39.146Z,4.80
2018-12-17T23:27:05.398Z,4.80
2018-12-17T23:29:32.320Z,4.70
2018-12-17T23:32:01.912Z,4.70
2018-12-17T23:34:28.177Z,4.70
2018-12-17T23:36:54.543Z,4.80
2018-12-17T23:39:20.966Z,4.80
2018-12-17T23:41:47.325Z,4.80
2018-12-17T23:44:13.508Z,4.80
2018-12-17T23:46:39.694Z,4.80
2018-12-17T23:49:05.913Z,4.80
2018-12-17T23:51:33.189Z,4.80
2018-12-17T23:53:59.338Z,4.80
2018-12-17T23:56:25.450Z,4.80
2018-12-17T23:58:53.816Z,4.80
